createdAt,value
2017-01-02T18:28:22.365Z,1018.15
2017-01-02T18:29:23.023Z,1018.14
2017-01-02T18:30:23.703Z,1018.16
2017-01-02T18:31:24.375Z,1018.18
2017-01-02T18:32:26.497Z,1018.14
2017-01-02T18:33:27.338Z,1018.14
2017-01-02T18:34:28.130Z,1018.12
2017-01-02T18:35:28.842Z,1018.16
2017-01-02T18:36:29.517Z,1018.11
2017-01-02T18:37:30.200Z,1018.19
2017-01-02T18:38:30.952Z,1018.12
2017-01-02T18:39:31.634Z,1018.11
2017-01-02T18:40:32.315Z,1018.08
2017-01-02T18:41:33.045Z,1018.07
2017-01-02T18:42:33.718Z,1018.11
2017-01-02T18:43:34.394Z,1018.08
2017-01-02T18:44:35.071Z,1018
2017-01-02T18:45:35.750Z,1017.96
2017-01-02T18:46:36.462Z,1017.96
2017-01-02T18:47:37.222Z,1017.86
2017-01-02T18:48:37.996Z,1017.88
2017-01-02T18:49:41.576Z,1017.87
2017-01-02T18:50:42.254Z,1017.85
2017-01-02T18:51:45.652Z,1017.82
2017-01-02T18:52:46.204Z,1017.82
2017-01-02T18:53:46.890Z,1017.83
2017-01-02T18:54:47.549Z,1017.8
2017-01-02T18:55:48.237Z,1017.85
2017-01-02T18:56:48.949Z,1017.81
2017-01-02T18:57:49.685Z,1017.74
2017-01-02T18:58:50.356Z,1017.79
2017-01-02T18:59:51.020Z,1017.83
2017-01-02T19:00:51.691Z,1017.91
2017-01-02T19:01:52.501Z,1017.95
2017-01-02T19:02:53.229Z,1017.93
2017-01-02T19:03:53.935Z,1017.89
2017-01-02T19:04:54.603Z,1017.88
2017-01-02T19:05:55.302Z,1017.91
2017-01-02T19:06:55.965Z,1017.89
2017-01-02T19:07:56.630Z,1017.89
2017-01-02T19:08:57.316Z,1017.91
2017-01-02T19:09:57.994Z,1017.92
2017-01-02T19:10:58.684Z,1017.91
2017-01-02T19:11:59.370Z,1017.93
2017-01-02T19:13:00.087Z,1017.83
2017-01-02T19:14:01.059Z,1017.79
2017-01-02T19:15:01.744Z,1017.77
2017-01-02T19:16:02.422Z,1017.7
2017-01-02T19:17:03.106Z,1017.77
2017-01-02T19:18:03.795Z,1017.72
2017-01-02T19:19:04.758Z,1017.72
2017-01-02T19:20:05.423Z,1017.76
2017-01-02T19:21:06.093Z,1017.75
2017-01-02T19:22:06.764Z,1017.77
2017-01-02T19:23:07.432Z,1017.8
2017-01-02T19:24:08.109Z,1017.74
2017-01-02T19:25:08.788Z,1017.76
2017-01-02T19:26:09.455Z,1017.69
2017-01-02T19:27:10.657Z,1017.73
2017-01-02T19:28:11.347Z,1017.72
2017-01-02T19:29:12.018Z,1017.69
2017-01-02T19:30:12.791Z,1017.68
2017-01-02T19:31:13.470Z,1017.73
2017-01-02T19:32:14.186Z,1017.72
2017-01-02T19:33:14.898Z,1017.76
2017-01-02T19:34:15.577Z,1017.76
2017-01-02T19:35:16.382Z,1017.74
2017-01-02T19:36:17.143Z,1017.73
2017-01-02T19:37:17.846Z,1017.66
2017-01-02T19:38:18.642Z,1017.71
2017-01-02T19:39:19.497Z,1017.74
2017-01-02T19:40:20.351Z,1017.72
2017-01-02T19:41:21.089Z,1017.72
2017-01-02T19:42:21.779Z,1017.71
2017-01-02T19:43:22.453Z,1017.75
2017-01-02T19:44:23.328Z,1017.77
2017-01-02T19:45:24.095Z,1017.71
2017-01-02T19:46:24.817Z,1017.67
2017-01-02T19:47:25.610Z,1017.66
2017-01-02T19:48:26.279Z,1017.71
2017-01-02T19:49:27.027Z,1017.7
2017-01-02T19:50:27.764Z,1017.78
2017-01-02T19:51:28.510Z,1017.72
2017-01-02T19:52:29.348Z,1017.72
2017-01-02T19:53:30.204Z,1017.75
2017-01-02T19:54:30.984Z,1017.73
2017-01-02T19:55:31.908Z,1017.79
2017-01-02T19:56:32.842Z,1017.79
2017-01-02T19:57:33.745Z,1017.81
2017-01-02T19:58:34.496Z,1017.9
2017-01-02T19:59:35.192Z,1017.83
2017-01-02T20:00:36.346Z,1017.83
2017-01-02T20:01:37.250Z,1017.9
2017-01-02T20:02:38.151Z,1017.91
2017-01-02T20:03:38.934Z,1017.86
2017-01-02T20:04:39.707Z,1017.93
2017-01-02T20:05:40.413Z,1017.88
2017-01-02T20:06:41.325Z,1017.89
2017-01-02T20:07:42.001Z,1017.89
2017-01-02T20:08:42.775Z,1017.88
2017-01-02T20:09:43.742Z,1017.89
2017-01-02T20:10:44.639Z,1017.91
2017-01-02T20:11:45.447Z,1017.91
2017-01-02T20:12:46.210Z,1017.84
2017-01-02T20:13:47.246Z,1017.88
2017-01-02T20:14:47.925Z,1017.9
2017-01-02T20:15:48.911Z,1017.93
2017-01-02T20:16:49.933Z,1017.88
2017-01-02T20:17:50.949Z,1017.87
2017-01-02T20:18:51.735Z,1017.86
2017-01-02T20:19:52.721Z,1017.87
2017-01-02T20:20:53.393Z,1017.86
2017-01-02T20:21:54.192Z,1017.87
2017-01-02T20:22:55.189Z,1017.82
2017-01-02T20:23:55.993Z,1017.83
2017-01-02T20:24:56.849Z,1017.78
2017-01-02T20:25:57.630Z,1017.79
2017-01-02T20:26:58.486Z,1017.75
2017-01-02T20:27:59.256Z,1017.85
2017-01-02T20:29:00.102Z,1017.82
2017-01-02T20:30:01.062Z,1017.86
2017-01-02T20:31:01.980Z,1017.89
2017-01-02T20:32:02.753Z,1017.95
2017-01-02T20:33:03.628Z,1017.93
2017-01-02T20:34:04.414Z,1018.03
2017-01-02T20:35:05.751Z,1018.02
2017-01-02T20:36:06.577Z,1018.04
2017-01-02T20:37:07.355Z,1018.11
2017-01-02T20:38:08.210Z,1018.02
2017-01-02T20:39:09.007Z,1018.14
2017-01-02T20:40:09.987Z,1018.19
2017-01-02T20:41:10.942Z,1018.19
2017-01-02T20:42:11.619Z,1018.11
2017-01-02T20:43:13.205Z,1018.08
2017-01-02T20:44:14.308Z,1018.03
2017-01-02T20:45:15.368Z,1017.96
2017-01-02T20:46:16.060Z,1017.91
2017-01-02T20:47:16.969Z,1017.93
2017-01-02T20:48:18.027Z,1017.93
2017-01-02T20:49:19.722Z,1017.78
2017-01-02T20:50:20.973Z,1017.85
2017-01-02T20:51:21.659Z,1017.83
2017-01-02T20:52:22.327Z,1017.83
2017-01-02T20:53:23.868Z,1017.77
2017-01-02T20:54:25.918Z,1017.8
2017-01-02T20:55:27.166Z,1017.8
2017-01-02T20:56:29.096Z,1017.78
2017-01-02T20:57:30.977Z,1017.74
2017-01-02T20:58:32.930Z,1017.8
2017-01-02T20:59:34.675Z,1017.8
2017-01-02T21:00:36.002Z,1017.75
2017-01-02T21:01:37.455Z,1017.7
2017-01-02T21:02:38.566Z,1017.71
2017-01-02T21:03:39.534Z,1017.75
2017-01-02T21:04:40.376Z,1017.76
2017-01-02T21:05:41.166Z,1017.79
2017-01-02T21:06:41.966Z,1017.78
2017-01-02T21:07:42.970Z,1017.65
2017-01-02T21:08:44.283Z,1017.76
2017-01-02T21:09:45.140Z,1017.7
2017-01-02T21:10:46.379Z,1017.72
2017-01-02T21:11:47.376Z,1017.8
2017-01-02T21:12:48.040Z,1017.81
2017-01-02T21:13:48.924Z,1017.91
2017-01-02T21:14:50.136Z,1017.92
2017-01-02T21:15:50.983Z,1017.85
2017-01-02T21:16:51.906Z,1017.88
2017-01-02T21:17:53.445Z,1017.81
2017-01-02T21:18:54.217Z,1017.78
2017-01-02T21:19:55.176Z,1017.79
2017-01-02T21:20:56.099Z,1017.75
2017-01-02T21:21:56.901Z,1017.83
2017-01-02T21:22:57.644Z,1017.88
2017-01-02T21:23:58.432Z,1017.89
2017-01-02T21:24:59.414Z,1017.91
2017-01-02T21:26:00.336Z,1017.9
2017-01-02T21:27:01.308Z,1017.93
2017-01-02T21:28:02.100Z,1017.86
2017-01-02T21:29:02.772Z,1017.89
2017-01-02T21:30:03.574Z,1017.88
2017-01-02T21:31:04.376Z,1017.89
2017-01-02T21:32:05.378Z,1017.92
2017-01-02T21:33:06.185Z,1017.92
2017-01-02T21:34:06.878Z,1017.96
2017-01-02T21:35:08.477Z,1017.96
2017-01-02T21:36:09.305Z,1017.96
2017-01-02T21:37:10.419Z,1017.96
2017-01-02T21:38:11.584Z,1017.97
2017-01-02T21:39:12.631Z,1017.95
2017-01-02T21:40:13.371Z,1017.95
2017-01-02T21:41:14.507Z,1017.9
2017-01-02T21:42:15.331Z,1017.91
2017-01-02T21:43:16.079Z,1017.9
2017-01-02T21:44:17.637Z,1017.93
2017-01-02T21:45:19.825Z,1017.93
2017-01-02T21:46:22.983Z,1017.89
2017-01-02T21:47:23.701Z,1017.92
2017-01-02T21:48:24.392Z,1017.9
2017-01-02T21:49:25.079Z,1017.9
2017-01-02T21:50:25.817Z,1017.91
2017-01-02T21:51:26.504Z,1017.88
2017-01-02T21:52:27.192Z,1017.93
2017-01-02T21:53:28.369Z,1017.9
2017-01-02T21:54:29.119Z,1017.88
2017-01-02T21:55:29.827Z,1017.92
2017-01-02T21:56:30.584Z,1017.9
2017-01-02T21:57:31.254Z,1017.82
2017-01-02T21:58:31.957Z,1017.86
2017-01-02T21:59:32.652Z,1017.85
2017-01-02T22:00:33.550Z,1017.88
2017-01-02T22:01:34.242Z,1017.9
2017-01-02T22:02:34.927Z,1017.9
2017-01-02T22:03:35.605Z,1017.89
2017-01-02T22:04:36.301Z,1017.86
2017-01-02T22:05:36.972Z,1017.91
2017-01-02T22:06:37.738Z,1017.92
2017-01-02T22:07:38.435Z,1017.86
2017-01-02T22:08:39.123Z,1017.79
2017-01-02T22:09:39.790Z,1017.87
2017-01-02T22:10:40.480Z,1017.82
2017-01-02T22:11:41.159Z,1017.83
2017-01-02T22:12:45.140Z,1017.82
2017-01-02T22:13:45.745Z,1017.85
2017-01-02T22:14:46.435Z,1017.82
2017-01-02T22:15:47.120Z,1017.83
2017-01-02T22:16:47.815Z,1017.84
2017-01-02T22:17:48.490Z,1017.84
2017-01-02T22:18:49.178Z,1017.82
2017-01-02T22:19:50.096Z,1017.85
2017-01-02T22:20:50.783Z,1017.83
2017-01-02T22:21:51.508Z,1017.86
2017-01-02T22:22:52.181Z,1017.88
2017-01-02T22:23:53.428Z,1017.89
2017-01-02T22:24:54.592Z,1017.94
2017-01-02T22:25:55.561Z,1017.9
2017-01-02T22:26:56.421Z,1017.91
2017-01-02T22:27:56.967Z,1017.84
2017-01-02T22:28:57.724Z,1017.84
2017-01-02T22:29:58.655Z,1017.89
2017-01-02T22:30:59.383Z,1017.95
2017-01-02T22:32:00.072Z,1018
2017-01-02T22:33:01.054Z,1017.99
2017-01-02T22:34:01.728Z,1017.97
2017-01-02T22:35:02.435Z,1017.93
2017-01-02T22:36:03.171Z,1017.95
2017-01-02T22:37:03.915Z,1017.94
2017-01-02T22:38:05.628Z,1017.92
2017-01-02T22:39:06.473Z,1017.96
2017-01-02T22:40:08.588Z,1017.91
2017-01-02T22:41:09.637Z,1017.9
2017-01-02T22:42:10.316Z,1017.91
2017-01-02T22:43:11.062Z,1017.89
2017-01-02T22:44:12.154Z,1017.85
2017-01-02T22:45:13.593Z,1017.84
2017-01-02T22:46:14.400Z,1017.82
2017-01-02T22:47:15.565Z,1017.85
2017-01-02T22:48:16.219Z,1017.84
2017-01-02T22:49:17.210Z,1017.85
2017-01-02T22:50:22.612Z,1017.81
2017-01-02T22:51:23.580Z,1017.83
2017-01-02T22:52:24.372Z,1017.78
2017-01-02T22:53:25.254Z,1017.82
2017-01-02T22:54:27.579Z,1017.79
2017-01-02T22:55:29.215Z,1017.77
2017-01-02T22:56:30.740Z,1017.77
2017-01-02T22:57:34.118Z,1017.74
2017-01-02T22:58:39.577Z,1017.78
2017-01-02T22:59:44.686Z,1017.79
2017-01-02T23:00:46.283Z,1017.77
2017-01-02T23:01:52.438Z,1017.79
